Time;durP1;ratioP1;P1;durP2;ratioP2;P2;SDS_P1;SDS_P2;PMS_P1;PMS_P2;Temp;Humidity;BMP_temperature;BMP_pressure;BME280_temperature;BME280_humidity;BME280_pressure;Samples;Min_cycle;Max_cycle;Signal;HPM_P1;HPM_P2
2023/08/25 00:01:00;;;;;;;0.60;0.60;;;20.30;99.90;;;;;;5122552;27;20043;-84
2023/08/25 00:03:25;;;;;;;0.70;0.70;;;19.90;99.90;;;;;;5126552;27;20050;-86
2023/08/25 00:05:55;;;;;;;0.60;0.60;;;19.90;99.90;;;;;;5117458;27;20079;-84
2023/08/25 00:08:21;;;;;;;0.63;0.63;;;19.90;99.90;;;;;;5122943;27;20055;-84
2023/08/25 00:10:52;;;;;;;0.50;0.50;;;19.70;99.90;;;;;;5124704;27;20079;-84
2023/08/25 00:13:20;;;;;;;0.50;0.50;;;20.00;99.90;;;;;;5124259;27;20058;-84
2023/08/25 00:15:45;;;;;;;0.52;0.52;;;19.60;99.90;;;;;;5128399;27;20047;-85
2023/08/25 00:18:11;;;;;;;0.55;0.55;;;19.70;99.90;;;;;;5123058;27;20061;-85
2023/08/25 00:20:37;;;;;;;0.80;0.80;;;19.70;99.90;;;;;;5124999;27;20918;-85
2023/08/25 00:23:03;;;;;;;1.00;1.00;;;19.70;99.90;;;;;;5127723;27;20043;-85
2023/08/25 00:25:32;;;;;;;0.98;0.98;;;19.50;99.90;;;;;;5136688;27;20085;-84
2023/08/25 00:27:58;;;;;;;1.00;1.00;;;19.50;99.90;;;;;;5125413;27;20042;-84
2023/08/25 00:30:25;;;;;;;0.80;0.80;;;19.60;99.90;;;;;;5122349;27;20390;-85
2023/08/25 00:32:50;;;;;;;0.90;0.90;;;19.50;99.90;;;;;;5123670;27;20042;-85
2023/08/25 00:35:16;;;;;;;0.90;0.90;;;19.60;99.90;;;;;;5127532;27;20055;-84
2023/08/25 00:37:42;;;;;;;0.90;0.90;;;19.50;99.90;;;;;;5118885;27;20051;-85
2023/08/25 00:40:08;;;;;;;1.00;1.00;;;19.50;99.90;;;;;;5122992;27;20710;-85
2023/08/25 00:42:34;;;;;;;1.10;1.10;;;19.40;99.90;;;;;;5121955;27;20086;-84
2023/08/25 00:44:59;;;;;;;1.00;1.00;;;19.30;99.90;;;;;;5120494;27;20070;-84
2023/08/25 00:47:25;;;;;;;0.90;0.90;;;19.40;99.90;;;;;;5109330;27;20034;-84
2023/08/25 00:49:53;;;;;;;0.90;0.90;;;19.40;99.90;;;;;;5116397;27;20138;-84
2023/08/25 00:52:23;;;;;;;1.00;1.00;;;19.40;99.90;;;;;;5105168;27;20043;-86
2023/08/25 00:54:51;;;;;;;0.90;0.90;;;19.50;99.90;;;;;;5126324;27;20136;-85
2023/08/25 00:57:17;;;;;;;0.80;0.80;;;19.50;99.90;;;;;;5121186;27;20111;-85
2023/08/25 00:59:45;;;;;;;0.90;0.90;;;19.50;99.90;;;;;;5125375;27;20047;-84
2023/08/25 01:02:11;;;;;;;0.82;0.82;;;19.20;99.90;;;;;;5121524;27;20048;-84
2023/08/25 01:04:37;;;;;;;0.70;0.70;;;19.20;99.90;;;;;;5121201;27;20050;-83
2023/08/25 01:07:02;;;;;;;0.70;0.70;;;19.20;99.90;;;;;;5117405;27;20050;-85
2023/08/25 01:09:28;;;;;;;0.70;0.70;;;19.40;99.90;;;;;;5103624;27;20046;-85
2023/08/25 01:12:04;;;;;;;0.70;0.70;;;19.50;99.90;;;;;;5122902;27;20035;-85
2023/08/25 01:14:40;;;;;;;0.73;0.73;;;19.50;99.90;;;;;;5103905;27;20034;-84
2023/08/25 01:17:30;;;;;;;0.70;0.70;;;19.40;99.90;;;;;;5119622;27;20107;-85
2023/08/25 01:20:00;;;;;;;0.80;0.80;;;19.30;99.90;;;;;;5106398;27;20051;-85
2023/08/25 01:22:50;;;;;;;0.70;0.70;;;19.20;99.90;;;;;;5120551;27;20057;-84
2023/08/25 01:25:27;;;;;;;0.70;0.70;;;19.20;99.90;;;;;;5103562;27;20050;-85
2023/08/25 01:27:55;;;;;;;0.70;0.70;;;19.30;99.90;;;;;;5124127;27;20495;-85
2023/08/25 01:30:26;;;;;;;0.60;0.60;;;19.10;99.90;;;;;;5122780;27;20051;-85
2023/08/25 01:32:52;;;;;;;0.60;0.60;;;19.00;99.90;;;;;;5121868;27;20099;-84
2023/08/25 01:35:22;;;;;;;0.60;0.60;;;19.40;99.90;;;;;;5122760;27;20046;-87
2023/08/25 01:37:57;;;;;;;0.70;0.70;;;19.20;99.90;;;;;;5117000;27;20494;-86
2023/08/25 01:40:50;;;;;;;0.80;0.80;;;19.60;99.90;;;;;;5122655;27;20042;-85
2023/08/25 01:43:22;;;;;;;0.70;0.70;;;19.20;99.90;;;;;;5122624;27;20054;-84
2023/08/25 01:45:48;;;;;;;0.90;0.90;;;19.70;99.90;;;;;;5123014;27;20047;-86
2023/08/25 01:48:15;;;;;;;0.90;0.90;;;19.40;99.90;;;;;;5118050;27;20656;-85
2023/08/25 01:50:41;;;;;;;0.90;0.90;;;19.40;99.90;;;;;;5119510;27;20050;-84
2023/08/25 01:53:08;;;;;;;1.05;1.05;;;19.90;99.90;;;;;;5119860;27;20456;-85
2023/08/25 01:55:35;;;;;;;0.90;0.90;;;19.60;99.90;;;;;;5124040;27;20047;-85
2023/08/25 01:58:02;;;;;;;1.00;1.00;;;19.80;99.90;;;;;;5118402;27;20066;-85
2023/08/25 02:00:28;;;;;;;1.00;1.00;;;20.00;99.90;;;;;;5115787;27;20043;-85
2023/08/25 02:02:55;;;;;;;1.00;1.00;;;19.80;99.90;;;;;;5120504;27;20057;-85
2023/08/25 02:05:21;;;;;;;1.00;1.00;;;19.40;99.90;;;;;;5123528;27;20495;-86
2023/08/25 02:07:47;;;;;;;1.02;1.02;;;19.50;99.90;;;;;;5120245;27;20050;-87
2023/08/25 02:10:13;;;;;;;1.00;1.00;;;19.80;99.90;;;;;;5120627;27;20051;-86
2023/08/25 02:12:38;;;;;;;1.00;1.00;;;19.90;99.90;;;;;;5124612;27;20122;-83
2023/08/25 02:15:04;;;;;;;1.10;1.10;;;19.70;99.90;;;;;;5120417;27;20054;-86
2023/08/25 02:17:30;;;;;;;1.10;1.10;;;19.90;99.90;;;;;;5122346;27;20081;-86
2023/08/25 02:19:56;;;;;;;1.20;1.20;;;19.80;99.90;;;;;;5124519;27;20078;-85
2023/08/25 02:22:21;;;;;;;1.10;1.10;;;19.70;99.90;;;;;;5104353;27;20675;-85
2023/08/25 02:24:47;;;;;;;1.10;1.10;;;19.70;99.90;;;;;;5107111;27;20038;-86
2023/08/25 02:27:13;;;;;;;1.05;1.05;;;19.60;99.90;;;;;;5120912;27;20046;-86
2023/08/25 02:29:38;;;;;;;1.00;1.00;;;19.80;99.90;;;;;;5123476;27;20560;-85
2023/08/25 02:32:04;;;;;;;1.00;1.00;;;20.10;99.90;;;;;;5138565;27;20692;-86
2023/08/25 02:34:30;;;;;;;1.00;1.00;;;20.00;99.90;;;;;;5121337;27;20239;-85
2023/08/25 02:36:56;;;;;;;0.95;0.95;;;20.00;99.90;;;;;;5122160;27;20108;-86
2023/08/25 02:39:21;;;;;;;1.00;1.00;;;19.80;99.90;;;;;;5118438;27;20072;-84
2023/08/25 02:41:47;;;;;;;1.00;1.00;;;20.00;99.90;;;;;;5125026;27;20118;-86
2023/08/25 02:44:13;;;;;;;0.98;0.98;;;19.60;99.90;;;;;;5125371;27;20061;-86
2023/08/25 02:46:40;;;;;;;1.02;1.02;;;19.80;99.90;;;;;;5125025;27;20074;-84
2023/08/25 02:49:05;;;;;;;1.00;1.00;;;19.50;99.90;;;;;;5124725;27;20118;-85
2023/08/25 02:51:34;;;;;;;1.20;1.20;;;19.50;99.90;;;;;;5123350;27;20482;-86
2023/08/25 02:53:59;;;;;;;0.90;0.90;;;19.90;99.90;;;;;;5125763;27;20451;-86
2023/08/25 02:56:25;;;;;;;0.90;0.90;;;19.50;99.90;;;;;;5127544;27;20047;-85
2023/08/25 02:58:50;;;;;;;0.85;0.85;;;19.90;99.90;;;;;;5121150;27;20415;-85
2023/08/25 03:01:16;;;;;;;0.82;0.82;;;19.90;99.90;;;;;;5122098;27;20119;-86
2023/08/25 03:03:43;;;;;;;0.90;0.90;;;19.70;99.90;;;;;;5127021;27;20053;-85
2023/08/25 03:06:09;;;;;;;0.77;0.77;;;19.90;99.90;;;;;;5108757;27;20035;-86
2023/08/25 03:08:35;;;;;;;0.80;0.80;;;19.60;99.90;;;;;;5122322;27;20092;-85
2023/08/25 03:11:03;;;;;;;0.70;0.70;;;19.70;99.90;;;;;;5126049;27;20047;-85
2023/08/25 03:13:30;;;;;;;0.77;0.77;;;19.40;99.90;;;;;;5120847;27;20434;-85
2023/08/25 03:15:56;;;;;;;0.73;0.73;;;19.30;99.90;;;;;;5124559;27;20117;-84
2023/08/25 03:18:22;;;;;;;0.70;0.70;;;19.60;99.90;;;;;;5123926;27;20126;-85
2023/08/25 03:20:51;;;;;;;0.73;0.73;;;19.40;99.90;;;;;;5120703;27;20492;-84
2023/08/25 03:23:17;;;;;;;0.70;0.70;;;19.10;99.90;;;;;;5119742;27;20184;-84
2023/08/25 03:25:43;;;;;;;0.70;0.70;;;19.00;99.90;;;;;;5113967;27;20081;-85
2023/08/25 03:28:09;;;;;;;0.68;0.68;;;19.40;99.90;;;;;;5123951;27;20595;-85
2023/08/25 03:30:34;;;;;;;0.50;0.50;;;19.10;99.90;;;;;;5126067;27;20043;-85
2023/08/25 03:33:00;;;;;;;0.60;0.60;;;19.30;99.90;;;;;;5121789;27;20031;-85
2023/08/25 03:35:26;;;;;;;0.60;0.60;;;18.90;99.90;;;;;;5121917;27;20074;-85
2023/08/25 03:37:51;;;;;;;0.60;0.60;;;19.10;99.90;;;;;;5123495;27;20531;-84
2023/08/25 03:40:19;;;;;;;0.60;0.60;;;19.00;99.90;;;;;;5121009;27;20046;-83
2023/08/25 03:42:45;;;;;;;0.70;0.70;;;19.00;99.90;;;;;;5127652;27;20070;-85
2023/08/25 03:45:10;;;;;;;0.65;0.65;;;19.00;99.90;;;;;;5124351;27;20051;-84
2023/08/25 03:47:36;;;;;;;0.65;0.65;;;18.80;99.90;;;;;;5122099;27;20046;-83
2023/08/25 03:50:01;;;;;;;0.80;0.80;;;19.30;99.90;;;;;;5123117;27;20050;-85
2023/08/25 03:52:27;;;;;;;0.70;0.70;;;19.10;99.90;;;;;;5121468;27;20046;-84
2023/08/25 03:54:53;;;;;;;0.70;0.70;;;19.20;99.90;;;;;;5110163;27;20126;-85
2023/08/25 03:57:18;;;;;;;0.70;0.70;;;19.00;99.90;;;;;;5127122;27;20054;-84
2023/08/25 03:59:47;;;;;;;0.70;0.70;;;18.80;99.90;;;;;;5119634;27;20563;-84
2023/08/25 04:02:13;;;;;;;0.75;0.75;;;19.10;99.90;;;;;;5124114;27;20050;-84
2023/08/25 04:04:38;;;;;;;0.70;0.70;;;18.80;99.90;;;;;;5103012;27;20047;-84
2023/08/25 04:07:04;;;;;;;0.70;0.70;;;19.00;99.90;;;;;;5111399;27;20038;-84
2023/08/25 04:09:30;;;;;;;0.70;0.70;;;18.80;99.90;;;;;;5120358;27;20047;-84
2023/08/25 04:11:56;;;;;;;0.70;0.70;;;19.10;99.90;;;;;;5124562;27;20124;-84
2023/08/25 04:14:22;;;;;;;0.77;0.77;;;18.80;99.90;;;;;;5107133;27;20054;-84
2023/08/25 04:16:47;;;;;;;0.70;0.70;;;18.90;99.90;;;;;;5121382;27;20499;-84
2023/08/25 04:19:16;;;;;;;0.70;0.70;;;18.70;99.90;;;;;;5123040;27;20051;-84
2023/08/25 04:21:43;;;;;;;0.73;0.73;;;18.70;99.90;;;;;;5123548;27;20043;-84
2023/08/25 04:24:09;;;;;;;0.70;0.70;;;18.60;99.90;;;;;;5124512;27;20445;-85
2023/08/25 04:26:35;;;;;;;0.70;0.70;;;18.50;99.90;;;;;;5110614;27;20132;-85
2023/08/25 04:29:00;;;;;;;0.70;0.70;;;18.70;99.90;;;;;;5122888;27;20057;-86
2023/08/25 04:31:26;;;;;;;0.70;0.70;;;19.00;99.90;;;;;;5107186;27;20495;-87
2023/08/25 04:33:52;;;;;;;0.70;0.70;;;18.70;99.90;;;;;;5119322;27;20579;-84
2023/08/25 04:36:17;;;;;;;0.70;0.70;;;18.90;99.90;;;;;;5120674;27;20046;-85
2023/08/25 04:38:43;;;;;;;0.70;0.70;;;18.80;99.90;;;;;;5125977;27;20050;-84
2023/08/25 04:41:09;;;;;;;0.70;0.70;;;19.10;99.90;;;;;;5119735;27;20099;-84
2023/08/25 04:43:34;;;;;;;0.63;0.63;;;19.20;99.90;;;;;;5103372;27;20047;-83
2023/08/25 04:46:00;;;;;;;0.50;0.50;;;19.00;99.90;;;;;;5121614;27;20043;-83
2023/08/25 04:48:26;;;;;;;0.60;0.60;;;19.30;99.90;;;;;;5120016;27;20051;-83
2023/08/25 04:50:51;;;;;;;0.55;0.55;;;19.30;99.90;;;;;;5119600;27;20137;-83
2023/08/25 04:53:17;;;;;;;0.50;0.50;;;19.00;99.90;;;;;;5119566;27;20043;-83
2023/08/25 04:55:43;;;;;;;0.55;0.55;;;19.40;99.90;;;;;;5127477;27;20053;-84
2023/08/25 04:58:08;;;;;;;0.70;0.70;;;19.20;99.90;;;;;;5123358;27;20053;-84
2023/08/25 05:00:34;;;;;;;0.50;0.50;;;19.00;99.90;;;;;;5117516;27;20053;-83
2023/08/25 05:03:00;;;;;;;0.60;0.60;;;19.40;99.90;;;;;;5120070;27;20404;-84
2023/08/25 05:05:26;;;;;;;0.55;0.55;;;19.30;99.90;;;;;;5123723;27;20301;-84
2023/08/25 05:07:52;;;;;;;0.60;0.60;;;19.20;99.90;;;;;;5120880;27;20074;-82
2023/08/25 05:10:17;;;;;;;0.60;0.60;;;19.00;99.90;;;;;;5119803;27;20589;-85
2023/08/25 05:12:43;;;;;;;0.50;0.50;;;19.10;99.90;;;;;;5118460;27;20134;-82
2023/08/25 05:15:09;;;;;;;0.60;0.60;;;18.90;99.90;;;;;;5125024;27;20120;-82
2023/08/25 05:17:35;;;;;;;0.60;0.60;;;18.90;99.90;;;;;;5118431;27;20081;-82
2023/08/25 05:20:00;;;;;;;0.50;0.50;;;19.20;99.90;;;;;;5124748;27;20082;-83
2023/08/25 05:22:26;;;;;;;0.60;0.60;;;19.20;99.90;;;;;;5123074;27;20398;-83
2023/08/25 05:24:55;;;;;;;0.57;0.57;;;19.30;99.90;;;;;;5125397;27;20047;-85
2023/08/25 05:27:20;;;;;;;0.52;0.52;;;19.10;99.90;;;;;;5121214;27;20068;-84
2023/08/25 05:29:46;;;;;;;0.50;0.50;;;19.00;99.90;;;;;;5120785;27;20774;-84
2023/08/25 05:32:12;;;;;;;0.50;0.50;;;19.30;99.90;;;;;;5120659;27;20039;-84
2023/08/25 05:34:37;;;;;;;0.50;0.50;;;19.60;99.90;;;;;;5123734;27;20612;-84
2023/08/25 05:37:03;;;;;;;0.50;0.50;;;19.00;99.90;;;;;;5106331;27;20047;-84
2023/08/25 05:39:29;;;;;;;0.50;0.50;;;19.40;99.90;;;;;;5122336;27;20080;-84
2023/08/25 05:41:54;;;;;;;0.60;0.60;;;19.90;99.90;;;;;;5119821;27;20104;-84
2023/08/25 05:44:20;;;;;;;0.50;0.50;;;19.10;99.90;;;;;;5121893;27;20074;-84
2023/08/25 05:46:47;;;;;;;0.50;0.50;;;19.30;99.90;;;;;;5117818;27;20056;-84
2023/08/25 05:49:13;;;;;;;0.50;0.50;;;19.40;99.90;;;;;;5120867;27;20061;-85
2023/08/25 05:51:39;;;;;;;0.50;0.50;;;19.70;99.90;;;;;;5121589;27;20043;-82
2023/08/25 05:54:04;;;;;;;0.50;0.50;;;19.60;99.90;;;;;;5120687;27;20042;-83
2023/08/25 05:56:30;;;;;;;0.60;0.60;;;19.80;99.90;;;;;;5119141;27;20074;-85
2023/08/25 05:58:59;;;;;;;0.50;0.50;;;19.40;99.90;;;;;;5121410;27;20034;-83
2023/08/25 06:01:25;;;;;;;0.50;0.50;;;19.70;99.90;;;;;;5119630;27;20091;-83
2023/08/25 06:03:50;;;;;;;0.50;0.50;;;19.40;99.90;;;;;;5121183;27;20035;-83
2023/08/25 06:06:16;;;;;;;0.60;0.60;;;19.70;99.90;;;;;;5121804;27;20439;-83
2023/08/25 06:08:42;;;;;;;0.50;0.50;;;20.20;99.90;;;;;;5126546;27;20634;-83
2023/08/25 06:11:08;;;;;;;0.50;0.50;;;20.10;99.90;;;;;;5101193;27;20047;-83
2023/08/25 06:13:34;;;;;;;0.50;0.50;;;19.90;99.90;;;;;;5119467;27;20130;-84
2023/08/25 06:15:59;;;;;;;0.50;0.50;;;20.40;99.90;;;;;;5120972;27;20047;-83
2023/08/25 06:18:25;;;;;;;0.60;0.60;;;20.40;99.90;;;;;;5104964;27;20054;-84
2023/08/25 06:20:51;;;;;;;0.60;0.60;;;19.80;99.90;;;;;;5124146;27;20047;-83
2023/08/25 06:23:17;;;;;;;0.60;0.60;;;20.30;99.90;;;;;;5122527;27;20437;-83
2023/08/25 06:25:44;;;;;;;0.60;0.60;;;20.10;99.90;;;;;;5134321;27;20043;-83
2023/08/25 06:28:10;;;;;;;0.60;0.60;;;20.10;99.90;;;;;;5123044;27;20633;-84
2023/08/25 06:30:38;;;;;;;0.60;0.60;;;20.50;99.90;;;;;;5121491;27;20118;-82
2023/08/25 06:33:04;;;;;;;0.60;0.60;;;20.50;99.90;;;;;;5123459;27;20472;-84
2023/08/25 06:35:29;;;;;;;0.60;0.60;;;20.10;99.90;;;;;;5118466;27;20042;-84
2023/08/25 06:37:55;;;;;;;0.50;0.50;;;20.30;99.90;;;;;;5124211;27;20472;-85
2023/08/25 06:40:21;;;;;;;0.60;0.60;;;20.30;99.90;;;;;;5123055;27;22983;-84
2023/08/25 06:42:46;;;;;;;0.68;0.68;;;20.50;99.90;;;;;;5120363;27;20035;-83
2023/08/25 06:45:12;;;;;;;0.65;0.65;;;20.40;99.90;;;;;;5119538;27;20055;-84
2023/08/25 06:47:38;;;;;;;0.60;0.60;;;20.70;99.90;;;;;;5120755;27;20088;-85
2023/08/25 06:50:05;;;;;;;0.60;0.60;;;20.40;99.90;;;;;;5114430;27;20046;-85
2023/08/25 06:52:31;;;;;;;0.70;0.70;;;20.70;99.90;;;;;;5119162;27;20053;-84
2023/08/25 06:54:58;;;;;;;0.70;0.70;;;20.80;99.90;;;;;;5123583;27;20039;-87
2023/08/25 06:57:24;;;;;;;0.60;0.60;;;20.50;99.90;;;;;;5117293;27;20051;-87
2023/08/25 06:59:50;;;;;;;0.70;0.70;;;21.00;99.90;;;;;;5119641;27;20126;-84
2023/08/25 07:02:16;;;;;;;0.70;0.70;;;21.20;99.90;;;;;;5120972;27;20043;-83
2023/08/25 07:04:42;;;;;;;0.60;0.60;;;21.10;99.90;;;;;;5120955;27;20054;-88
2023/08/25 07:07:08;;;;;;;0.60;0.60;;;21.00;99.90;;;;;;5098658;27;20059;-84
2023/08/25 07:09:35;;;;;;;0.60;0.60;;;21.00;99.90;;;;;;5125505;27;20062;-84
2023/08/25 07:12:00;;;;;;;0.60;0.60;;;21.40;99.90;;;;;;5108864;27;20064;-85
2023/08/25 07:14:29;;;;;;;0.65;0.65;;;21.20;99.90;;;;;;5116972;27;20051;-84
2023/08/25 07:16:54;;;;;;;0.52;0.52;;;21.20;99.90;;;;;;5141574;27;20399;-87
2023/08/25 07:19:20;;;;;;;0.60;0.60;;;21.10;99.90;;;;;;5122466;27;20058;-86
2023/08/25 07:21:46;;;;;;;0.60;0.60;;;21.10;99.90;;;;;;5124719;27;20042;-84
2023/08/25 07:24:11;;;;;;;0.60;0.60;;;21.00;99.90;;;;;;5124209;27;20139;-84
2023/08/25 07:26:37;;;;;;;0.60;0.60;;;21.20;99.90;;;;;;5127857;27;20073;-84
2023/08/25 07:29:02;;;;;;;0.60;0.60;;;21.20;99.90;;;;;;5126660;27;20039;-85
2023/08/25 07:31:28;;;;;;;0.60;0.60;;;21.20;99.90;;;;;;5126493;27;20035;-84
2023/08/25 07:33:54;;;;;;;0.60;0.60;;;21.10;99.90;;;;;;5129403;27;20070;-85
2023/08/25 07:36:19;;;;;;;0.60;0.60;;;21.10;99.90;;;;;;5121684;27;20134;-85
2023/08/25 07:38:45;;;;;;;0.60;0.60;;;21.20;99.90;;;;;;5125569;27;20133;-85
2023/08/25 07:41:15;;;;;;;0.60;0.60;;;21.30;99.90;;;;;;5107671;27;20062;-84
2023/08/25 07:43:41;;;;;;;0.60;0.60;;;21.40;99.90;;;;;;5125860;27;20141;-85
2023/08/25 07:46:07;;;;;;;0.60;0.60;;;21.60;99.90;;;;;;5102065;27;20949;-85
2023/08/25 07:48:33;;;;;;;0.50;0.50;;;21.40;99.90;;;;;;5120447;27;20046;-85
2023/08/25 07:50:58;;;;;;;0.52;0.52;;;21.60;99.90;;;;;;5128173;27;20043;-85
2023/08/25 07:53:24;;;;;;;0.60;0.60;;;21.60;99.90;;;;;;5122707;27;20687;-85
2023/08/25 07:55:50;;;;;;;0.60;0.60;;;21.40;99.90;;;;;;5121460;27;20704;-84
2023/08/25 07:58:16;;;;;;;0.60;0.60;;;21.40;99.90;;;;;;5121714;27;20580;-85
2023/08/25 08:00:42;;;;;;;0.60;0.60;;;21.30;99.90;;;;;;5119170;27;20043;-84
2023/08/25 08:03:08;;;;;;;0.63;0.63;;;21.30;99.90;;;;;;5126018;27;20115;-83
2023/08/25 08:05:34;;;;;;;0.60;0.60;;;21.10;99.90;;;;;;5123050;27;20038;-84
2023/08/25 08:08:00;;;;;;;0.60;0.60;;;21.30;99.90;;;;;;5102180;27;20412;-84
2023/08/25 08:10:26;;;;;;;0.60;0.60;;;21.30;99.90;;;;;;5115600;27;20046;-85
2023/08/25 08:12:52;;;;;;;0.60;0.60;;;21.10;99.90;;;;;;5118209;27;20091;-85
2023/08/25 08:15:18;;;;;;;0.80;0.80;;;21.50;99.90;;;;;;5117442;27;20046;-86
2023/08/25 08:17:43;;;;;;;0.60;0.60;;;21.40;99.90;;;;;;5122937;27;20492;-84
2023/08/25 08:20:13;;;;;;;0.60;0.60;;;21.30;99.90;;;;;;5104640;27;20038;-84
2023/08/25 08:22:42;;;;;;;0.60;0.60;;;21.30;99.90;;;;;;5125443;27;20038;-84
2023/08/25 08:25:13;;;;;;;0.60;0.60;;;21.50;99.90;;;;;;5122509;27;20138;-84
2023/08/25 08:27:41;;;;;;;0.70;0.70;;;21.70;99.90;;;;;;5118286;27;20074;-84
2023/08/25 08:30:08;;;;;;;0.60;0.60;;;21.50;99.90;;;;;;5125752;27;20051;-85
2023/08/25 08:32:47;;;;;;;0.63;0.63;;;21.50;99.90;;;;;;5118176;27;20510;-85
2023/08/25 08:35:12;;;;;;;0.60;0.60;;;21.70;99.90;;;;;;5121104;27;20967;-86
2023/08/25 08:37:41;;;;;;;0.60;0.60;;;21.70;99.90;;;;;;5120793;27;20047;-86
2023/08/25 08:40:13;;;;;;;0.60;0.60;;;21.60;99.90;;;;;;5118182;27;20058;-86
2023/08/25 08:42:39;;;;;;;0.60;0.60;;;21.70;99.90;;;;;;5121720;27;20046;-84
2023/08/25 08:45:10;;;;;;;0.50;0.50;;;21.60;99.90;;;;;;5118189;27;20039;-83
2023/08/25 08:47:36;;;;;;;0.57;0.57;;;21.70;99.90;;;;;;5125219;27;20153;-85
2023/08/25 08:50:04;;;;;;;0.50;0.50;;;21.70;99.90;;;;;;5121039;27;20038;-84
2023/08/25 08:52:31;;;;;;;0.60;0.60;;;21.40;99.90;;;;;;5119416;27;20047;-83
2023/08/25 08:54:58;;;;;;;0.70;0.70;;;21.60;99.90;;;;;;5113284;27;20162;-84
2023/08/25 08:57:28;;;;;;;0.60;0.60;;;21.30;99.90;;;;;;5122182;27;20172;-84
2023/08/25 08:59:58;;;;;;;0.50;0.50;;;21.50;99.90;;;;;;5121603;27;20134;-84
2023/08/25 09:02:27;;;;;;;0.70;0.70;;;21.40;99.90;;;;;;5119297;27;20047;-83
2023/08/25 09:04:58;;;;;;;0.60;0.60;;;21.50;99.90;;;;;;5116864;27;20150;-83
2023/08/25 09:07:31;;;;;;;0.80;0.80;;;21.30;99.90;;;;;;5129240;27;20406;-84
2023/08/25 09:09:58;;;;;;;0.70;0.70;;;21.50;99.90;;;;;;5119508;27;20074;-85
2023/08/25 09:12:24;;;;;;;0.70;0.70;;;21.40;99.90;;;;;;5117950;27;20483;-89
2023/08/25 09:14:50;;;;;;;0.70;0.70;;;21.50;99.90;;;;;;5104166;27;20050;-86
2023/08/25 09:17:15;;;;;;;0.70;0.70;;;21.30;99.90;;;;;;5103249;27;20055;-85
2023/08/25 09:19:41;;;;;;;0.70;0.70;;;21.50;99.90;;;;;;5115080;27;20061;-85
2023/08/25 09:22:16;;;;;;;0.80;0.80;;;21.50;99.90;;;;;;5120672;27;20726;-85
2023/08/25 09:24:45;;;;;;;0.70;0.70;;;21.40;99.90;;;;;;5132299;27;20453;-86
2023/08/25 09:27:27;;;;;;;0.70;0.70;;;21.40;99.90;;;;;;5098739;27;20050;-85
2023/08/25 09:30:03;;;;;;;0.70;0.70;;;21.50;99.90;;;;;;5115769;27;20047;-86
2023/08/25 09:32:29;;;;;;;0.70;0.70;;;21.70;99.90;;;;;;5120827;27;20424;-87
2023/08/25 09:34:55;;;;;;;0.70;0.70;;;21.60;99.90;;;;;;5105339;27;20073;-86
2023/08/25 09:37:21;;;;;;;0.70;0.70;;;21.40;99.90;;;;;;5122697;27;20047;-87
2023/08/25 09:39:58;;;;;;;0.70;0.70;;;21.70;99.90;;;;;;5112961;27;20054;-84
2023/08/25 09:42:24;;;;;;;0.70;0.70;;;21.60;99.90;;;;;;5117835;27;20591;-87
2023/08/25 09:44:58;;;;;;;0.70;0.70;;;21.60;99.90;;;;;;5105061;27;20043;-85
2023/08/25 09:47:26;;;;;;;0.68;0.68;;;21.60;99.90;;;;;;5104665;27;20042;-86
2023/08/25 09:49:52;;;;;;;0.80;0.80;;;21.50;99.90;;;;;;5121187;27;20074;-84
2023/08/25 09:52:20;;;;;;;0.70;0.70;;;21.30;99.90;;;;;;5104578;27;20077;-85
2023/08/25 09:54:47;;;;;;;0.70;0.70;;;21.40;99.90;;;;;;5121541;27;20095;-84
2023/08/25 09:57:12;;;;;;;0.80;0.80;;;21.40;99.90;;;;;;5122918;27;20535;-86
2023/08/25 09:59:38;;;;;;;0.70;0.70;;;21.40;99.90;;;;;;5105552;27;20038;-84
2023/08/25 10:02:05;;;;;;;0.70;0.70;;;21.60;99.90;;;;;;5120850;27;20039;-83
2023/08/25 10:04:30;;;;;;;0.80;0.80;;;21.20;99.90;;;;;;5122143;27;20046;-82
2023/08/25 10:06:56;;;;;;;0.70;0.70;;;21.40;99.90;;;;;;5124386;27;20050;-81
2023/08/25 10:09:24;;;;;;;0.80;0.80;;;20.80;99.90;;;;;;5120839;27;20647;-82
2023/08/25 10:11:50;;;;;;;0.60;0.60;;;21.20;99.90;;;;;;5119102;27;20544;-81
2023/08/25 10:14:21;;;;;;;0.60;0.60;;;20.90;99.90;;;;;;5116325;27;20057;-81
2023/08/25 10:16:52;;;;;;;0.60;0.60;;;20.80;99.90;;;;;;5118173;27;20046;-81
2023/08/25 10:19:23;;;;;;;0.60;0.60;;;21.60;99.90;;;;;;5114357;27;20525;-80
2023/08/25 10:21:51;;;;;;;0.60;0.60;;;21.20;99.90;;;;;;5138940;27;20047;-80
2023/08/25 10:24:24;;;;;;;0.60;0.60;;;21.50;99.90;;;;;;5119960;27;20047;-81
2023/08/25 10:26:51;;;;;;;0.60;0.60;;;21.60;99.90;;;;;;5125890;27;20050;-81
2023/08/25 10:29:19;;;;;;;0.70;0.70;;;21.30;99.90;;;;;;5122874;27;20308;-82
2023/08/25 10:31:49;;;;;;;0.60;0.60;;;20.70;99.90;;;;;;5106594;27;20134;-81
2023/08/25 10:34:33;;;;;;;0.60;0.60;;;20.30;99.90;;;;;;5123506;27;20262;-81
2023/08/25 10:37:03;;;;;;;0.60;0.60;;;20.40;99.90;;;;;;5121562;27;20047;-82
2023/08/25 10:39:56;;;;;;;0.60;0.60;;;20.60;99.90;;;;;;5115024;27;20051;-81
2023/08/25 10:42:24;;;;;;;0.60;0.60;;;20.30;99.90;;;;;;5085699;27;20122;-81
2023/08/25 10:44:54;;;;;;;0.70;0.70;;;20.60;99.90;;;;;;5120949;27;20047;-81
2023/08/25 10:47:22;;;;;;;0.70;0.70;;;20.30;99.90;;;;;;5113484;27;20209;-80
2023/08/25 10:49:53;;;;;;;0.60;0.60;;;20.50;99.90;;;;;;5132436;27;20057;-80
2023/08/25 10:52:20;;;;;;;0.70;0.70;;;19.90;99.90;;;;;;5118167;27;20043;-82
2023/08/25 10:54:47;;;;;;;0.60;0.60;;;20.20;99.90;;;;;;5121243;27;20046;-80
2023/08/25 10:57:24;;;;;;;0.60;0.60;;;20.00;99.90;;;;;;5124187;27;20066;-81
2023/08/25 10:59:54;;;;;;;0.70;0.70;;;20.80;99.90;;;;;;5126914;27;20034;-81
2023/08/25 11:02:36;;;;;;;0.60;0.60;;;20.90;99.90;;;;;;5118744;27;20051;-81
2023/08/25 11:05:33;;;;;;;0.60;0.60;;;20.80;99.90;;;;;;5123835;27;20046;-82
2023/08/25 11:08:03;;;;;;;0.60;0.60;;;20.40;99.90;;;;;;5126614;27;21941;-82
2023/08/25 11:10:33;;;;;;;0.65;0.65;;;20.60;99.90;;;;;;5123105;27;20043;-81
2023/08/25 11:13:00;;;;;;;0.70;0.70;;;20.20;99.90;;;;;;5122463;27;20042;-81
2023/08/25 11:15:26;;;;;;;0.60;0.60;;;20.90;99.90;;;;;;5121752;27;20078;-80
2023/08/25 11:17:53;;;;;;;0.60;0.60;;;21.00;99.90;;;;;;5124788;27;20046;-80
2023/08/25 11:20:19;;;;;;;0.70;0.70;;;21.20;99.90;;;;;;5136261;27;20051;-81
2023/08/25 11:22:57;;;;;;;0.60;0.60;;;20.90;99.90;;;;;;5128384;27;20039;-81
2023/08/25 11:25:24;;;;;;;0.60;0.60;;;20.90;99.90;;;;;;5108844;27;20054;-81
2023/08/25 11:27:50;;;;;;;0.60;0.60;;;21.00;99.90;;;;;;5121100;27;20047;-81
2023/08/25 11:30:17;;;;;;;0.60;0.60;;;21.10;99.90;;;;;;5124341;27;20046;-80
2023/08/25 11:32:46;;;;;;;0.70;0.70;;;21.00;99.90;;;;;;5105582;27;20045;-81
2023/08/25 11:35:13;;;;;;;0.70;0.70;;;21.10;99.90;;;;;;5105212;27;20085;-81
2023/08/25 11:37:44;;;;;;;0.77;0.77;;;20.70;99.90;;;;;;5119350;27;20043;-81
2023/08/25 11:40:19;;;;;;;0.70;0.70;;;20.80;99.90;;;;;;5123960;27;20055;-80
2023/08/25 11:42:46;;;;;;;0.70;0.70;;;21.00;99.90;;;;;;5122611;27;20125;-80
2023/08/25 11:45:12;;;;;;;0.60;0.60;;;21.00;99.90;;;;;;5122320;27;20043;-81
2023/08/25 11:47:38;;;;;;;0.80;0.80;;;21.10;99.90;;;;;;5119152;27;20062;-81
2023/08/25 11:50:05;;;;;;;0.70;0.70;;;21.20;99.90;;;;;;5129847;27;20392;-81
2023/08/25 11:52:32;;;;;;;0.60;0.60;;;21.30;99.90;;;;;;5119684;27;20534;-81
2023/08/25 11:54:58;;;;;;;0.65;0.65;;;21.10;99.90;;;;;;5142004;27;20055;-80
2023/08/25 11:57:37;;;;;;;0.70;0.70;;;21.20;99.90;;;;;;5123610;27;20035;-81
2023/08/25 12:00:05;;;;;;;0.70;0.70;;;21.30;99.90;;;;;;5124510;27;20042;-81
2023/08/25 12:02:31;;;;;;;0.60;0.60;;;21.20;99.90;;;;;;5120962;27;20042;-81
2023/08/25 12:05:00;;;;;;;0.70;0.70;;;20.80;99.90;;;;;;5102368;27;20054;-80
2023/08/25 12:07:32;;;;;;;0.68;0.68;;;21.00;99.90;;;;;;5121921;27;20043;-81
2023/08/25 12:10:00;;;;;;;0.70;0.70;;;21.20;99.90;;;;;;5122267;27;20057;-81
2023/08/25 12:12:37;;;;;;;0.73;0.73;;;21.00;99.90;;;;;;5118887;27;20091;-81
2023/08/25 12:15:06;;;;;;;0.70;0.70;;;21.10;99.90;;;;;;5118725;27;20034;-82
2023/08/25 12:17:34;;;;;;;0.70;0.70;;;21.10;99.90;;;;;;5115640;27;20046;-81
2023/08/25 12:20:09;;;;;;;0.75;0.75;;;21.30;99.90;;;;;;5121970;27;20491;-81
2023/08/25 12:22:35;;;;;;;0.63;0.63;;;20.90;99.90;;;;;;5120489;27;20058;-81
2023/08/25 12:25:00;;;;;;;0.70;0.70;;;21.30;99.90;;;;;;5132869;27;20043;-81
2023/08/25 12:27:26;;;;;;;0.60;0.60;;;20.90;99.90;;;;;;5123913;27;20049;-81
2023/08/25 12:29:52;;;;;;;0.70;0.70;;;20.90;99.90;;;;;;5123561;27;20067;-81
2023/08/25 12:32:17;;;;;;;0.70;0.70;;;21.30;99.90;;;;;;5122512;27;20555;-82
2023/08/25 12:34:43;;;;;;;0.70;0.70;;;20.90;99.90;;;;;;5124903;27;20077;-81
2023/08/25 12:37:08;;;;;;;0.65;0.65;;;20.90;99.90;;;;;;5123346;27;20126;-81
2023/08/25 12:39:34;;;;;;;0.70;0.70;;;20.90;99.90;;;;;;5121590;27;20047;-82
2023/08/25 12:42:00;;;;;;;0.60;0.60;;;21.40;99.90;;;;;;5119731;27;20051;-81
2023/08/25 12:44:25;;;;;;;0.60;0.60;;;21.00;99.90;;;;;;5120395;27;20042;-81
2023/08/25 12:46:51;;;;;;;0.60;0.60;;;21.30;99.90;;;;;;5119076;27;20711;-81
2023/08/25 12:49:16;;;;;;;0.60;0.60;;;20.80;99.90;;;;;;5113049;27;20053;-82